Time;durP1;ratioP1;P1;durP2;ratioP2;P2;SDS_P1;SDS_P2;PMS_P1;PMS_P2;Temp;Humidity;BMP_temperature;BMP_pressure;BME280_temperature;BME280_humidity;BME280_pressure;Samples;Min_cycle;Max_cycle;Signal;HPM_P1;HPM_P2
2021/10/02 00:45:32;;;;;;;;;53.00;42.00;;;;;11.63;100.00;100408.28;6321584;20;3616883;-45
2021/10/02 00:48:02;;;;;;;;;50.00;40.00;;;;;11.48;100.00;100403.75;6284305;20;2846214;-44
2021/10/02 00:50:31;;;;;;;;;53.00;42.00;;;;;11.58;100.00;100402.28;6320980;20;3607515;-44
2021/10/02 00:53:00;;;;;;;;;54.00;41.00;;;;;11.65;100.00;100401.00;6284659;20;2865966;-44
2021/10/02 00:55:30;;;;;;;;;55.67;44.33;;;;;11.47;100.00;100401.13;6316368;20;3619087;-45
2021/10/02 00:57:58;;;;;;;;;53.00;41.00;;;;;11.57;100.00;100397.84;6289951;20;3615980;-46
2021/10/02 01:00:28;;;;;;;;;50.00;40.33;;;;;11.63;100.00;100392.13;6285627;20;2850328;-44
2021/10/02 01:03:16;;;;;;;;;54.67;43.67;;;;;11.58;100.00;100396.91;6320313;20;3611755;-46
2021/10/02 01:06:17;;;;;;;;;52.33;42.33;;;;;11.59;100.00;100389.72;6283973;20;2848308;-44
2021/10/02 01:09:11;;;;;;;;;55.67;44.33;;;;;11.68;100.00;100391.91;6312152;20;3620146;-44
2021/10/02 01:13:11;;;;;;;;;52.67;42.67;;;;;11.73;100.00;100391.66;6318340;20;3608693;-44
2021/10/02 01:16:08;;;;;;;;;49.50;40.00;;;;;11.71;100.00;100382.78;6280242;20;2840928;-45
2021/10/02 01:18:54;;;;;;;;;216.00;188.00;;;;;11.60;100.00;100391.44;6281634;20;4489835;-45
2021/10/02 01:22:10;;;;;;;;;62.67;52.00;;;;;11.57;100.00;100384.41;6282093;20;3620464;-44
2021/10/02 01:24:57;;;;;;;;;53.33;40.00;;;;;11.69;100.00;100384.69;6318208;20;3603362;-46
2021/10/02 01:27:56;;;;;;;;;49.67;42.00;;;;;11.59;100.00;100385.22;6284290;20;2856606;-44
2021/10/02 01:48:16;;;;;;;;;53.67;41.67;;;;;11.49;100.00;100383.97;6314418;20;3621159;-44
2021/10/02 01:50:50;;;;;;;;;54.67;41.33;;;;;11.54;100.00;100376.53;6282396;20;3607628;-44
2021/10/02 01:53:21;;;;;;;;;51.67;42.33;;;;;11.53;100.00;100379.28;6316841;20;3597084;-44
2021/10/02 01:55:51;;;;;;;;;49.33;39.33;;;;;11.46;100.00;100378.75;6280570;20;2861947;-47
2021/10/02 01:58:23;;;;;;;;;48.67;41.00;;;;;11.48;100.00;100379.56;6314139;20;3592967;-44
2021/10/02 02:00:53;;;;;;;;;53.67;44.00;;;;;11.52;100.00;100383.78;6281392;20;3606504;-44
2021/10/02 02:03:24;;;;;;;;;54.67;42.33;;;;;11.59;100.00;100373.59;6319373;20;3601308;-44
2021/10/02 02:05:55;;;;;;;;;57.00;43.67;;;;;11.53;100.00;100374.78;6281862;20;3626250;-44
2021/10/02 02:08:26;;;;;;;;;52.00;42.67;;;;;11.37;100.00;100380.13;6315457;20;3607538;-44
2021/10/02 02:11:00;;;;;;;;;47.50;40.00;;;;;11.24;100.00;100375.47;6283569;20;3469012;-44
2021/10/02 02:13:36;;;;;;;;;57.33;44.00;;;;;11.17;100.00;100383.00;6308618;20;3626267;-44
2021/10/02 02:16:06;;;;;;;;;53.67;42.33;;;;;10.97;100.00;100371.47;6309543;20;3596256;-46
2021/10/02 02:18:36;;;;;;;;;47.67;39.33;;;;;10.98;100.00;100373.22;6276902;20;3602342;-45
2021/10/02 02:21:13;;;;;;;;;50.00;40.33;;;;;11.15;100.00;100375.00;6311182;20;2858861;-45
2021/10/02 02:23:42;;;;;;;;;52.67;40.67;;;;;11.03;100.00;100364.91;6317224;20;3614007;-44
2021/10/02 02:26:14;;;;;;;;;52.33;41.33;;;;;11.10;100.00;100365.47;6282895;20;3600236;-44
2021/10/02 02:28:43;;;;;;;;;48.00;38.00;;;;;11.16;100.00;100366.03;6317267;20;3596119;-45
2021/10/02 02:31:15;;;;;;;;;51.67;41.33;;;;;11.18;100.00;100380.22;6284965;20;3601298;-45
2021/10/02 02:33:44;;;;;;;;;56.67;46.00;;;;;11.12;100.00;100367.13;6312415;20;3631526;-45
2021/10/02 02:36:13;;;;;;;;;53.00;42.00;;;;;11.23;100.00;100368.38;6282344;20;2852454;-44
2021/10/02 02:38:43;;;;;;;;;52.00;41.33;;;;;11.15;100.00;100363.41;6312282;20;3612761;-44
2021/10/02 02:41:12;;;;;;;;;55.00;45.00;;;;;11.16;100.00;100367.81;6318131;20;3624184;-45
2021/10/02 02:43:41;;;;;;;;;48.33;40.67;;;;;11.14;100.00;100367.06;6284733;20;3582506;-45
2021/10/02 02:46:32;;;;;;;;;58.00;44.67;;;;;11.15;100.00;100369.63;6281980;20;3626374;-44
2021/10/02 02:49:59;;;;;;;;;51.00;40.33;;;;;11.19;100.00;100360.47;6308314;20;3581463;-44
2021/10/02 02:52:58;;;;;;;;;56.67;41.33;;;;;11.07;100.00;100365.63;6314884;20;3604418;-44
2021/10/02 02:55:42;;;;;;;;;52.67;42.00;;;;;11.03;100.00;100359.53;6282431;20;2852450;-44
2021/10/02 02:58:12;;;;;;;;;53.00;41.67;;;;;11.20;100.00;100355.97;6318343;20;3596131;-44
2021/10/02 03:00:53;;;;;;;;;50.67;42.33;;;;;11.14;100.00;100359.84;6285430;20;2860869;-45
2021/10/02 03:03:33;;;;;;;;;50.00;44.00;;;;;11.20;100.00;100350.59;6319807;20;3599174;-44
2021/10/02 03:06:09;;;;;;;;;53.67;43.33;;;;;11.20;100.00;100359.50;6316350;20;3612691;-45
2021/10/02 03:08:42;;;;;;;;;50.33;41.33;;;;;11.29;100.00;100359.97;6319571;20;3589823;-44
2021/10/02 03:11:14;;;;;;;;;50.00;39.50;;;;;11.12;100.00;100359.06;6283885;20;2864838;-45
2021/10/02 03:13:44;;;;;;;;;49.67;40.67;;;;;11.14;100.00;100354.47;6286194;20;3593935;-45
2021/10/02 03:16:14;;;;;;;;;53.33;42.67;;;;;11.36;100.00;100351.50;6318652;20;3605545;-44
2021/10/02 03:18:52;;;;;;;;;50.33;42.00;;;;;11.48;100.00;100354.44;6284645;20;2854576;-45
2021/10/02 03:21:24;;;;;;;;;53.33;40.33;;;;;11.24;100.00;100356.66;6319025;20;3594075;-46
2021/10/02 03:23:55;;;;;;;;;55.33;45.33;;;;;11.11;100.00;100351.94;6288641;20;3623137;-47
2021/10/02 03:26:24;;;;;;;;;52.67;44.00;;;;;10.98;100.00;100348.19;6317854;20;3603525;-45
2021/10/02 03:28:55;;;;;;;;;50.00;41.00;;;;;10.93;100.00;100350.25;6283883;20;2859689;-47
2021/10/02 03:31:24;;;;;;;;;50.33;42.00;;;;;11.03;100.00;100343.41;6320579;20;3611691;-45
2021/10/02 03:33:55;;;;;;;;;55.00;44.00;;;;;11.04;100.00;100345.16;6285871;20;2867024;-45
2021/10/02 03:36:26;;;;;;;;;55.00;46.00;;;;;10.95;100.00;100343.84;6316070;20;3611716;-46
2021/10/02 03:38:56;;;;;;;;;57.25;42.75;;;;;10.99;100.00;100347.22;6316214;20;3632633;-45
2021/10/02 03:41:25;;;;;;;;;49.33;40.33;;;;;10.91;100.00;100346.75;6320701;20;3593099;-45
2021/10/02 03:43:55;;;;;;;;;55.00;43.33;;;;;10.95;100.00;100340.25;6285140;20;3616930;-44
2021/10/02 03:46:24;;;;;;;;;54.50;44.00;;;;;10.97;100.00;100338.38;6315734;20;2855463;-48
2021/10/02 03:48:54;;;;;;;;;56.33;40.67;;;;;10.85;100.00;100344.38;6287119;20;3621037;-49
2021/10/02 03:51:23;;;;;;;;;50.67;40.00;;;;;10.97;100.00;100339.22;6321891;20;3604535;-47
2021/10/02 03:53:52;;;;;;;;;50.67;39.33;;;;;10.82;100.00;100333.78;6286015;20;3599295;-46
2021/10/02 03:56:25;;;;;;;;;51.00;41.00;;;;;11.02;100.00;100336.31;6317922;20;2861768;-45
2021/10/02 03:58:54;;;;;;;;;50.00;43.33;;;;;10.95;100.00;100332.19;6315497;20;2855486;-49
2021/10/02 04:01:23;;;;;;;;;49.67;41.67;;;;;11.03;100.00;100329.97;6319657;20;3601280;-45
2021/10/02 04:03:52;;;;;;;;;47.00;41.00;;;;;10.75;100.00;100335.94;6286172;20;2835656;-46
2021/10/02 04:06:21;;;;;;;;;50.33;39.67;;;;;10.66;100.00;100328.34;6287300;20;2863845;-47
2021/10/02 04:08:50;;;;;;;;;51.67;41.67;;;;;10.59;100.00;100325.13;6319372;20;3598246;-44
2021/10/02 04:11:20;;;;;;;;;50.00;39.33;;;;;10.67;100.00;100330.97;6286827;20;3605987;-46
2021/10/02 04:13:48;;;;;;;;;45.67;39.00;;;;;10.57;100.00;100327.00;6320199;20;3596088;-45
2021/10/02 04:16:17;;;;;;;;;47.00;39.50;;;;;10.52;100.00;100329.06;6286075;20;2839002;-45
2021/10/02 04:18:46;;;;;;;;;49.67;40.67;;;;;10.49;100.00;100332.78;6286813;20;2850280;-45
2021/10/02 04:21:15;;;;;;;;;54.00;42.33;;;;;10.60;100.00;100332.22;6320465;20;3603378;-44
2021/10/02 04:23:43;;;;;;;;;39.00;25.50;;;;;10.71;100.00;100337.91;6285418;20;2483588;-45
2021/10/02 04:26:16;;;;;;;;;47.00;41.50;;;;;10.85;100.00;100329.16;6286497;20;2843145;-45
2021/10/02 04:28:45;;;;;;;;;51.00;42.00;;;;;10.67;100.00;100333.66;6285682;20;2847121;-45
2021/10/02 04:31:16;;;;;;;;;42.33;37.00;;;;;10.67;100.00;100336.34;6288149;20;3596224;-46
2021/10/02 04:33:46;;;;;;;;;56.00;45.00;;;;;10.70;100.00;100336.16;6282666;20;3610666;-47
2021/10/02 04:36:15;;;;;;;;;52.00;43.00;;;;;10.40;100.00;100344.00;6320927;20;3598153;-44
2021/10/02 04:38:45;;;;;;;;;46.00;39.67;;;;;10.15;100.00;100336.25;6283291;20;2862810;-44
2021/10/02 04:41:14;;;;;;;;;50.00;42.00;;;;;10.11;100.00;100337.34;6319485;20;3600313;-46
2021/10/02 04:43:44;;;;;;;;;48.00;38.00;;;;;10.14;100.00;100342.56;6284626;20;2848175;-44
2021/10/02 04:46:17;;;;;;;;;53.67;44.00;;;;;10.52;100.00;100340.66;6319934;20;3603469;-44
2021/10/02 04:48:47;;;;;;;;;30.00;30.00;;;;;10.13;100.00;100346.19;6281467;20;2839911;-44
2021/10/02 04:51:17;;;;;;;;;51.33;43.33;;;;;9.82;100.00;100342.31;6285814;20;2859790;-45
2021/10/02 04:53:46;;;;;;;;;50.00;40.00;;;;;9.93;100.00;100341.81;6318456;20;2859734;-44
2021/10/02 04:56:17;;;;;;;;;49.67;40.67;;;;;9.76;100.00;100347.94;6317728;20;3602346;-44
2021/10/02 04:58:47;;;;;;;;;47.33;39.33;;;;;9.83;100.00;100354.78;6314226;20;2835716;-44
2021/10/02 05:01:16;;;;;;;;;49.67;40.67;;;;;9.85;100.00;100357.41;6313054;20;3590897;-45
2021/10/02 05:03:47;;;;;;;;;52.33;42.00;;;;;9.85;100.00;100360.94;6286453;20;2846072;-44
2021/10/02 05:06:17;;;;;;;;;60.33;44.00;;;;;10.19;100.00;100356.63;6317714;20;3629530;-44
2021/10/02 05:08:48;;;;;;;;;51.33;41.67;;;;;10.12;100.00;100352.50;6314773;20;2846305;-43
2021/10/02 05:11:18;;;;;;;;;50.67;40.33;;;;;10.03;100.00;100356.50;6314298;20;3602320;-44
2021/10/02 05:13:47;;;;;;;;;55.67;42.00;;;;;10.13;100.00;100359.59;6320599;20;3614857;-44
2021/10/02 05:16:16;;;;;;;;;51.33;42.00;;;;;10.50;100.00;100355.09;6287991;20;3603322;-44
2021/10/02 05:18:45;;;;;;;;;48.50;40.50;;;;;10.29;100.00;100365.09;6283737;20;2846088;-45
2021/10/02 05:21:14;;;;;;;;;84.33;59.67;;;;;10.52;100.00;100370.19;6285847;20;3655500;-44
2021/10/02 05:23:44;;;;;;;;;75.25;56.50;;;;;10.62;100.00;100362.56;6286086;20;3626307;-44
2021/10/02 05:26:14;;;;;;;;;77.50;58.50;;;;;10.59;100.00;100369.91;6320307;20;3637725;-44
2021/10/02 05:28:41;;;;;;;;;87.00;68.00;;;;;10.43;100.00;100375.19;6310988;20;1932633;-44
2021/10/02 05:31:12;;;;;;;;;76.67;57.00;;;;;10.61;100.00;100362.63;6284412;20;3632525;-45
2021/10/02 05:33:45;;;;;;;;;78.75;54.50;;;;;10.59;100.00;100369.91;6316896;20;3654501;-46
2021/10/02 05:36:15;;;;;;;;;59.00;44.33;;;;;10.67;100.00;100373.06;6316728;20;3630444;-44
2021/10/02 05:38:42;;;;;;;;;6.00;4.00;;;;;10.83;100.00;100373.16;6315943;20;2756493;-44
2021/10/02 05:41:15;;;;;;;;;59.00;46.50;;;;;10.98;100.00;100370.53;6288240;20;3617927;-44
2021/10/02 05:43:45;;;;;;;;;54.33;45.67;;;;;10.80;100.00;100378.69;6315952;20;3607521;-44
2021/10/02 05:46:13;;;;;;;;;51.00;43.33;;;;;10.92;100.00;100378.03;6319763;20;3586679;-44
2021/10/02 05:48:43;;;;;;;;;50.67;43.00;;;;;11.04;100.00;100387.28;6281994;20;2861803;-46
2021/10/02 05:51:12;;;;;;;;;55.33;43.67;;;;;11.02;100.00;100384.66;6319151;20;3627413;-45
2021/10/02 05:53:41;;;;;;;;;46.67;37.00;;;;;11.17;100.00;100389.25;6286974;20;3590867;-44
2021/10/02 05:56:10;;;;;;;;;55.67;44.00;;;;;11.35;100.00;100391.91;6283072;20;3635652;-44
2021/10/02 05:58:40;;;;;;;;;61.50;46.25;;;;;11.27;100.00;100402.19;6316255;20;3643992;-44
2021/10/02 06:01:10;;;;;;;;;60.00;47.00;;;;;11.27;100.00;100394.13;6318964;20;3621100;-44
2021/10/02 06:03:39;;;;;;;;;53.33;44.00;;;;;11.12;100.00;100394.00;6288809;20;3610675;-49
2021/10/02 06:06:07;;;;;;;;;50.00;40.00;;;;;11.33;100.00;100402.75;6284888;20;2844057;-46
2021/10/02 06:08:37;;;;;;;;;52.33;42.00;;;;;11.48;100.00;100403.75;6283510;20;3604504;-44
2021/10/02 06:11:07;;;;;;;;;55.33;45.00;;;;;11.39;100.00;100409.59;6318774;20;3625282;-45
2021/10/02 06:13:35;;;;;;;;;57.67;45.00;;;;;11.48;100.00;100406.44;6285979;20;3617919;-47
2021/10/02 06:16:05;;;;;;;;;55.67;43.67;;;;;11.58;100.00;100404.97;6281519;20;3616917;-45
2021/10/02 06:18:34;;;;;;;;;54.67;44.00;;;;;11.54;100.00;100408.78;6316464;20;3607543;-44
2021/10/02 06:21:03;;;;;;;;;57.00;43.33;;;;;11.88;100.00;100406.97;6281788;20;3637884;-45
2021/10/02 06:23:32;;;;;;;;;57.67;46.00;;;;;11.99;100.00;100414.47;6316317;20;3618030;-44
2021/10/02 06:26:01;;;;;;;;;73.33;58.67;;;;;12.08;100.00;100414.81;6287555;20;3625216;-47
2021/10/02 06:28:29;;;;;;;;;123.50;118.50;;;;;12.18;100.00;100415.16;6276135;20;1946324;-44
2021/10/02 06:30:59;;;;;;;;;52.67;42.67;;;;;12.10;100.00;100416.53;6286081;20;3606518;-45
2021/10/02 06:33:29;;;;;;;;;51.67;43.33;;;;;12.08;100.00;100408.53;6316828;20;3614857;-44
2021/10/02 06:35:59;;;;;;;;;53.00;43.33;;;;;12.26;100.00;100412.03;6288490;20;2856856;-44
2021/10/02 06:38:27;;;;;;;;;51.67;43.33;;;;;12.41;100.00;100413.84;6320156;20;3608580;-45
2021/10/02 06:41:02;;;;;;;;;55.33;40.33;;;;;12.89;100.00;100417.31;6286111;20;3613775;-44
2021/10/02 06:43:31;;;;;;;;;49.67;40.33;;;;;13.37;100.00;100418.03;6284186;20;3586695;-44
2021/10/02 06:46:02;;;;;;;;;58.00;45.00;;;;;13.80;100.00;100418.06;6284599;20;3637739;-47
2021/10/02 06:48:32;;;;;;;;;82.75;74.75;;;;;14.02;100.00;100424.78;6316674;20;4416888;-46
2021/10/02 06:51:01;;;;;;;;;41.33;33.67;;;;;15.58;91.42;100425.09;6319532;20;3597102;-45
2021/10/02 06:53:29;;;;;;;;;42.00;35.00;;;;;17.97;74.17;100433.38;6294747;20;3583590;-44
2021/10/02 06:55:58;;;;;;;;;44.33;38.00;;;;;16.95;77.59;100438.69;6291273;20;3594000;-45
2021/10/02 06:58:27;;;;;;;;;60.33;48.33;;;;;16.80;78.45;100428.03;6288353;20;3611720;-44
2021/10/02 07:00:56;;;;;;;;;47.00;40.33;;;;;16.78;77.92;100438.13;6289650;20;3587727;-44
2021/10/02 07:03:25;;;;;;;;;57.00;46.00;;;;;13.97;85.94;100424.22;6288265;20;3598122;-45
2021/10/02 07:05:54;;;;;;;;;75.67;62.33;;;;;14.33;83.55;100428.22;6320844;20;3624272;-44
2021/10/02 07:08:23;;;;;;;;;24.33;23.33;;;;;14.56;84.10;100424.91;6289108;20;3585707;-46
2021/10/02 07:10:52;;;;;;;;;34.00;28.33;;;;;14.48;84.14;100421.78;6291112;20;3608540;-47
2021/10/02 07:13:21;;;;;;;;;30.67;29.00;;;;;14.42;81.40;100423.06;6290319;20;3597263;-45
2021/10/02 07:15:49;;;;;;;;;34.00;31.00;;;;;14.86;79.88;100431.94;6290807;20;3585714;-45
2021/10/02 07:18:18;;;;;;;;;29.00;29.00;;;;;15.00;79.82;100422.88;6289998;20;3601330;-44
2021/10/02 07:20:48;;;;;;;;;48.33;39.00;;;;;14.93;77.55;100427.84;6287191;20;3610056;-45
2021/10/02 07:23:19;;;;;;;;;30.25;25.25;;;;;14.73;73.55;100422.91;6323304;20;3605504;-44
2021/10/02 07:25:48;;;;;;;;;27.00;27.00;;;;;14.99;74.91;100426.56;6319944;20;3477427;-44
2021/10/02 07:28:18;;;;;;;;;31.67;30.00;;;;;15.27;75.64;100421.00;6316393;20;3591949;-45
2021/10/02 07:30:46;;;;;;;;;29.00;27.33;;;;;15.00;75.38;100422.88;6322297;20;3598162;-45
2021/10/02 07:33:15;;;;;;;;;36.00;32.00;;;;;14.78;75.41;100423.47;6289098;20;3598236;-44
2021/10/02 07:35:44;;;;;;;;;24.00;22.67;;;;;14.85;69.83;100420.25;6288584;20;3577329;-44
2021/10/02 07:38:13;;;;;;;;;36.67;31.00;;;;;14.55;68.26;100428.56;6290433;20;3595007;-45
2021/10/02 07:40:42;;;;;;;;;29.67;24.33;;;;;14.70;67.50;100419.44;6290725;20;3587724;-47
2021/10/02 07:43:13;;;;;;;;;38.67;35.33;;;;;14.80;66.96;100421.53;6289524;20;3601309;-46
2021/10/02 07:45:44;;;;;;;;;22.33;21.00;;;;;14.90;67.83;100417.22;6288764;20;3582648;-45
2021/10/02 07:48:19;;;;;;;;;26.33;22.00;;;;;14.95;70.48;100425.88;6287782;20;3560949;-46
2021/10/02 07:50:48;;;;;;;;;24.33;24.33;;;;;15.57;66.97;100427.94;6286465;20;3587720;-44
2021/10/02 07:53:18;;;;;;;;;23.00;23.00;;;;;15.10;67.14;100422.13;6289703;20;3585630;-43
2021/10/02 07:55:51;;;;;;;;;25.00;23.33;;;;;15.40;69.06;100428.22;6283706;20;2848293;-46
2021/10/02 07:58:23;;;;;;;;;28.00;27.33;;;;;14.76;68.45;100418.16;6316950;20;3598208;-46
2021/10/02 08:00:57;;;;;;;;;27.67;27.33;;;;;15.06;68.59;100417.03;6291014;20;3594010;-44
2021/10/02 08:03:26;;;;;;;;;27.67;24.67;;;;;14.83;65.69;100421.31;6290192;20;3602684;-43
2021/10/02 08:05:56;;;;;;;;;60.00;47.67;;;;;14.90;65.46;100414.50;6287022;20;3622052;-44
2021/10/02 08:08:25;;;;;;;;;22.00;22.00;;;;;15.34;66.01;100414.16;6320030;20;3576272;-44
2021/10/02 08:10:53;;;;;;;;;27.00;23.00;;;;;15.98;64.01;100419.59;6290170;20;3582524;-45
2021/10/02 08:13:23;;;;;;;;;23.00;22.00;;;;;15.77;62.96;100423.81;6285271;20;2846246;-44
2021/10/02 08:16:00;;;;;;;;;28.67;24.67;;;;;15.65;63.91;100427.38;6323740;20;3590844;-45
2021/10/02 08:18:36;;;;;;;;;21.67;19.67;;;;;15.34;65.31;100426.81;6286356;20;3582614;-47
2021/10/02 08:21:07;;;;;;;;;48.00;39.67;;;;;15.25;64.82;100419.38;6286041;20;3595016;-46
2021/10/02 08:23:38;;;;;;;;;36.33;33.00;;;;;15.14;64.51;100418.25;6291240;20;3603382;-44
2021/10/02 08:26:07;;;;;;;;;49.00;41.00;;;;;15.28;64.76;100419.16;6288559;20;3601342;-44
2021/10/02 08:28:37;;;;;;;;;48.67;38.67;;;;;15.30;65.05;100419.91;6283817;20;3590838;-43
2021/10/02 08:31:07;;;;;;;;;26.00;22.67;;;;;15.37;65.52;100422.06;6319616;20;3583568;-44
2021/10/02 08:33:37;;;;;;;;;55.33;45.33;;;;;15.44;63.90;100424.34;6280435;20;3602447;-43
2021/10/02 08:36:07;;;;;;;;;29.33;28.33;;;;;15.40;64.01;100415.56;6321066;20;3589873;-44
2021/10/02 08:38:37;;;;;;;;;67.33;53.33;;;;;15.29;62.33;100426.28;6286367;20;3620012;-44
2021/10/02 08:41:09;;;;;;;;;46.00;39.00;;;;;15.36;61.52;100414.06;6289940;20;3585637;-43
2021/10/02 08:43:39;;;;;;;;;30.67;29.00;;;;;15.67;62.81;100423.59;6290798;20;3566017;-44
2021/10/02 08:46:09;;;;;;;;;21.67;20.00;;;;;15.76;62.73;100411.28;6283139;20;3582668;-44
2021/10/02 08:48:40;;;;;;;;;59.00;45.50;;;;;15.59;61.10;100418.72;6317517;20;3621128;-45
2021/10/02 08:51:19;;;;;;;;;30.33;27.33;;;;;15.69;61.37;100415.38;6318017;20;3597160;-43
2021/10/02 08:53:51;;;;;;;;;43.00;35.00;;;;;15.95;61.75;100410.81;6287859;20;3606585;-43
2021/10/02 08:56:20;;;;;;;;;43.67;35.00;;;;;15.88;60.60;100407.69;6284963;20;3613796;-44
2021/10/02 08:58:49;;;;;;;;;36.00;31.00;;;;;15.99;62.40;100418.59;6316999;20;3598287;-44
2021/10/02 09:01:18;;;;;;;;;22.00;22.00;;;;;15.91;60.98;100410.16;6286187;20;3581691;-44
2021/10/02 09:03:48;;;;;;;;;71.33;58.00;;;;;15.65;60.10;100403.03;6284653;20;3612732;-44
2021/10/02 09:06:17;;;;;;;;;47.00;36.00;;;;;15.72;60.53;100401.66;6281332;20;3614817;-44
2021/10/02 09:08:47;;;;;;;;;22.00;20.67;;;;;15.82;61.23;100396.41;6318134;20;3576256;-43
2021/10/02 09:11:15;;;;;;;;;20.50;17.50;;;;;15.98;60.74;100406.06;6284825;20;2835688;-44
2021/10/02 09:13:44;;;;;;;;;20.50;19.50;;;;;15.62;59.16;100404.09;6279789;20;2836943;-43
2021/10/02 09:16:13;;;;;;;;;23.50;19.50;;;;;16.08;63.40;100405.38;6280916;20;2828448;-43
2021/10/02 09:18:42;;;;;;;;;23.00;20.67;;;;;15.91;62.09;100404.75;6283170;20;2846143;-43
2021/10/02 09:21:12;;;;;;;;;27.67;25.00;;;;;16.10;62.99;100401.56;6314117;20;3594132;-43
2021/10/02 09:23:49;;;;;;;;;46.25;36.00;;;;;15.95;61.75;100410.81;6286098;20;4370141;-43
2021/10/02 09:26:42;;;;;;;;;24.00;23.00;;;;;16.15;63.68;100406.66;6318380;20;3584603;-44
2021/10/02 09:29:11;;;;;;;;;21.00;19.00;;;;;16.18;61.36;100406.44;6280057;20;2847241;-43
2021/10/02 09:31:40;;;;;;;;;21.00;21.00;;;;;16.15;62.24;100399.38;6282763;20;2828425;-43
2021/10/02 09:34:23;;;;;;;;;17.67;15.00;;;;;16.18;59.91;100401.00;6282605;20;3553392;-43
2021/10/02 09:36:53;;;;;;;;;40.00;35.00;;;;;16.34;60.25;100406.16;6283525;20;3594014;-43
2021/10/02 09:39:38;;;;;;;;;41.00;32.33;;;;;16.44;61.20;100402.66;6317816;20;3622112;-44
2021/10/02 09:42:35;;;;;;;;;55.33;44.33;;;;;16.26;57.75;100404.00;6285292;20;3598161;-43
2021/10/02 09:45:20;;;;;;;;;43.33;36.00;;;;;16.42;58.32;100399.19;6285235;20;3616901;-43
2021/10/02 09:47:55;;;;;;;;;26.67;24.33;;;;;16.71;59.39;100398.84;6285246;20;3585754;-44
2021/10/02 09:50:36;;;;;;;;;21.67;20.00;;;;;16.66;60.33;100392.91;6285895;20;2844043;-44
2021/10/02 09:53:16;;;;;;;;;33.67;31.00;;;;;16.88;58.01;100398.47;6315983;20;3599311;-45
2021/10/02 09:55:52;;;;;;;;;30.33;29.33;;;;;16.63;57.65;100399.41;6284899;20;3584584;-45
2021/10/02 09:58:35;;;;;;;;;23.50;22.00;;;;;16.67;58.22;100391.94;6311958;20;2828407;-43
2021/10/02 10:01:08;;;;;;;;;24.00;21.50;;;;;17.48;57.80;100388.38;6284148;20;2843992;-42
2021/10/02 10:03:48;;;;;;;;;22.00;22.00;;;;;17.41;56.92;100389.00;6286654;20;2848161;-43
2021/10/02 10:06:29;;;;;;;;;22.88;19.25;;;;;16.98;57.79;100384.19;6313597;20;3574170;-43
2021/10/02 10:09:14;;;;;;;;;19.00;17.00;;;;;16.68;57.65;100382.81;6290496;20;2819217;-43
2021/10/02 10:11:50;;;;;;;;;19.00;19.00;;;;;16.66;58.35;100385.63;6290632;20;2822118;-43
2021/10/02 10:14:26;;;;;;;;;17.00;17.00;;;;;16.41;57.87;100381.19;6289026;20;2485655;-43
2021/10/02 10:16:57;;;;;;;;;20.00;18.50;;;;;16.74;61.46;100381.47;6289897;20;2835805;-43
2021/10/02 10:19:30;;;;;;;;;22.50;20.00;;;;;16.82;58.42;100371.78;6287811;20;2834624;-43
2021/10/02 10:22:18;;;;;;;;;19.00;18.50;;;;;16.96;58.93;100369.91;6290681;20;2830474;-43
2021/10/02 10:24:57;;;;;;;;;25.00;21.00;;;;;17.25;58.84;100382.06;6288909;20;3572092;-43
2021/10/02 10:27:45;;;;;;;;;21.33;21.33;;;;;17.20;59.34;100378.81;6289389;20;3582630;-43
2021/10/02 10:30:26;;;;;;;;;23.00;19.00;;;;;16.90;57.63;100376.63;6290898;20;3588778;-43
2021/10/02 10:33:10;;;;;;;;;21.50;18.00;;;;;16.81;58.67;100377.34;6286999;20;2831513;-43
2021/10/02 10:35:52;;;;;;;;;19.50;18.00;;;;;16.64;58.94;100376.75;6289829;20;2826299;-46
2021/10/02 10:38:25;;;;;;;;;18.50;17.00;;;;;16.93;60.17;100370.09;6289729;20;2837801;-43
2021/10/02 10:40:54;;;;;;;;;15.00;15.00;;;;;16.88;57.19;100363.19;6285024;20;2804475;-43
2021/10/02 10:43:23;;;;;;;;;22.00;18.00;;;;;16.96;61.59;100367.19;6287411;20;2841017;-44
2021/10/02 10:45:52;;;;;;;;;21.00;18.33;;;;;17.14;59.36;100368.47;6292866;20;3568107;-43
2021/10/02 10:48:21;;;;;;;;;21.00;20.33;;;;;16.81;57.88;100363.78;6288591;20;3572269;-43
2021/10/02 10:50:50;;;;;;;;;21.33;20.00;;;;;17.40;60.31;100362.81;6323589;20;3573173;-42
2021/10/02 10:53:19;;;;;;;;;17.50;17.50;;;;;17.62;58.46;100360.13;6286596;20;2840540;-45
2021/10/02 10:55:55;;;;;;;;;20.33;20.33;;;;;18.34;57.72;100353.38;6288305;20;3574414;-43
2021/10/02 10:58:30;;;;;;;;;21.00;18.00;;;;;18.23;56.58;100348.00;6287678;20;3571178;-43
2021/10/02 11:01:04;;;;;;;;;22.00;20.67;;;;;17.77;55.28;100344.41;6289019;20;3575256;-45
2021/10/02 11:03:44;;;;;;;;;17.00;17.00;;;;;18.67;56.59;100332.50;6283882;20;2828402;-43
2021/10/02 11:06:19;;;;;;;;;24.67;20.00;;;;;18.54;55.49;100338.13;6291858;20;3571065;-42
2021/10/02 11:09:01;;;;;;;;;17.00;17.00;;;;;18.33;57.77;100336.22;6282009;20;2835677;-44
2021/10/02 11:11:53;;;;;;;;;13.50;13.50;;;;;18.23;56.56;100337.97;6288545;20;2810730;-44
2021/10/02 11:14:46;;;;;;;;;20.50;17.00;;;;;18.03;58.53;100334.19;6285627;20;2837790;-45
2021/10/02 11:17:35;;;;;;;;;18.67;18.67;;;;;18.80;58.71;100327.75;6288941;20;3576377;-44
2021/10/02 11:20:21;;;;;;;;;18.50;16.00;;;;;18.31;58.51;100327.31;6287022;20;2832588;-43
2021/10/02 11:23:40;;;;;;;;;31.00;28.67;;;;;17.94;58.39;100327.66;6290579;20;3597232;-43
2021/10/02 11:26:14;;;;;;;;;23.00;23.00;;;;;18.12;58.97;100316.28;6287351;20;2846178;-44
2021/10/02 11:28:44;;;;;;;;;21.33;20.00;;;;;17.94;60.93;100313.22;6318668;20;3572104;-44
2021/10/02 11:31:19;;;;;;;;;20.33;18.33;;;;;18.13;59.84;100315.25;6288150;20;3570007;-44
2021/10/02 11:33:51;;;;;;;;;23.50;19.50;;;;;18.90;57.63;100308.78;6284504;20;2837992;-43
2021/10/02 11:36:46;;;;;;;;;22.50;18.00;;;;;19.20;57.33;100308.00;6287770;20;2848210;-43
2021/10/02 11:39:29;;;;;;;;;19.33;19.33;;;;;18.75;56.49;100300.13;6287416;20;3577344;-43
2021/10/02 11:42:12;;;;;;;;;24.67;20.00;;;;;19.41;58.18;100292.47;6288188;20;3576517;-44
2021/10/02 11:44:52;;;;;;;;;26.67;21.33;;;;;18.45;57.93;100295.38;6288547;20;3572322;-43
2021/10/02 11:47:26;;;;;;;;;19.00;17.00;;;;;19.13;56.51;100290.47;6285419;20;2834663;-44
2021/10/02 11:50:13;;;;;;;;;16.00;16.00;;;;;19.57;55.47;100293.84;6288862;20;2823260;-44
2021/10/02 11:52:44;;;;;;;;;17.00;17.00;;;;;19.88;57.17;100292.81;6288421;20;2829469;-46
2021/10/02 11:55:38;;;;;;;;;19.00;19.00;;;;;18.65;57.35;100289.97;6286293;20;2846097;-43
2021/10/02 11:58:09;;;;;;;;;19.00;17.50;;;;;19.06;58.21;100291.00;6286184;20;2830840;-44
2021/10/02 12:00:44;;;;;;;;;16.67;16.67;;;;;19.14;53.82;100281.28;6285139;20;2841925;-42
2021/10/02 12:03:23;;;;;;;;;20.67;17.33;;;;;19.12;55.90;100277.88;6318960;20;3571084;-44
2021/10/02 12:05:54;;;;;;;;;17.00;15.00;;;;;19.03;56.55;100274.94;6283054;20;2819038;-42
2021/10/02 12:08:24;;;;;;;;;20.00;17.50;;;;;19.10;55.05;100269.81;6285308;20;2825383;-42
2021/10/02 12:11:12;;;;;;;;;21.00;18.00;;;;;19.28;54.56;100267.34;6287185;20;2832540;-43
2021/10/02 12:13:49;;;;;;;;;20.50;18.50;;;;;19.44;54.08;100267.69;6288061;20;2835688;-42
2021/10/02 12:16:31;;;;;;;;;19.50;18.00;;;;;19.39;53.93;100263.66;6286436;20;2830470;-43
2021/10/02 12:19:20;;;;;;;;;23.00;19.33;;;;;19.90;54.43;100268.13;6285896;20;2850576;-42
2021/10/02 12:22:00;;;;;;;;;19.50;18.50;;;;;19.57;54.68;100266.59;6316883;20;2841961;-43